createdAt,value
2019-02-02T00:02:11.069Z,3.80
2019-02-02T00:04:39.823Z,3.70
2019-02-02T00:07:08.692Z,3.70
2019-02-02T00:09:37.701Z,3.70
2019-02-02T00:12:06.606Z,3.70
2019-02-02T00:14:35.530Z,3.70
2019-02-02T00:17:04.859Z,3.60
2019-02-02T00:19:33.787Z,3.60
2019-02-02T00:22:02.660Z,3.60
2019-02-02T00:24:31.439Z,3.70
2019-02-02T00:27:00.493Z,3.60
2019-02-02T00:29:29.363Z,3.60
2019-02-02T00:31:58.198Z,3.60
2019-02-02T00:34:27.206Z,3.60
2019-02-02T00:36:58.994Z,3.60
2019-02-02T00:39:27.091Z,3.60
2019-02-02T00:41:55.860Z,3.60
2019-02-02T00:44:24.626Z,3.60
2019-02-02T00:46:53.416Z,3.60
2019-02-02T00:49:22.259Z,3.60
2019-02-02T00:51:51.579Z,3.60
2019-02-02T00:54:20.664Z,3.60
2019-02-02T00:56:49.455Z,3.60
2019-02-02T00:59:18.487Z,3.60
2019-02-02T01:01:47.349Z,3.70
2019-02-02T01:04:16.373Z,3.70
2019-02-02T01:06:45.280Z,3.80
2019-02-02T01:09:21.489Z,3.80
2019-02-02T01:11:50.703Z,3.80
2019-02-02T01:14:19.632Z,3.80
2019-02-02T01:16:48.631Z,3.80
2019-02-02T01:19:17.663Z,3.80
2019-02-02T01:21:47.055Z,3.70
2019-02-02T01:24:15.963Z,3.80
2019-02-02T01:26:44.894Z,3.80
2019-02-02T01:29:13.821Z,3.80
2019-02-02T01:31:42.611Z,3.80
2019-02-02T01:34:11.634Z,3.90
2019-02-02T01:36:40.548Z,3.80
2019-02-02T01:39:09.664Z,3.80
2019-02-02T01:41:38.597Z,3.80
2019-02-02T01:44:07.727Z,3.80
2019-02-02T01:46:36.749Z,3.80
2019-02-02T01:49:06.017Z,3.80
2019-02-02T01:51:35.132Z,3.80
2019-02-02T01:54:04.088Z,3.80
2019-02-02T01:56:33.151Z,3.90
2019-02-02T01:59:01.969Z,3.90
2019-02-02T02:01:31.100Z,3.80
2019-02-02T02:04:00.151Z,3.90
2019-02-02T02:06:29.355Z,3.80
2019-02-02T02:08:58.202Z,3.80
2019-02-02T02:11:27.184Z,3.80
2019-02-02T02:13:56.705Z,3.80
2019-02-02T02:16:25.563Z,3.80
2019-02-02T02:18:54.492Z,3.80
2019-02-02T02:21:23.605Z,3.80
2019-02-02T02:23:52.398Z,3.80
2019-02-02T02:26:21.773Z,3.80
2019-02-02T02:28:50.643Z,3.80
2019-02-02T02:31:19.838Z,3.80
2019-02-02T02:33:49.219Z,3.80
2019-02-02T02:36:18.027Z,3.80
2019-02-02T02:38:47.171Z,3.90
2019-02-02T02:41:16.054Z,3.80
2019-02-02T02:43:45.059Z,3.80
2019-02-02T02:46:14.019Z,3.80
2019-02-02T02:48:42.938Z,3.70
2019-02-02T02:51:12.052Z,3.70
2019-02-02T02:53:41.109Z,3.70
2019-02-02T02:56:09.974Z,3.60
2019-02-02T02:58:41.693Z,3.50
2019-02-02T03:01:09.762Z,3.50
2019-02-02T03:03:38.646Z,3.40
2019-02-02T03:06:07.836Z,3.40
2019-02-02T03:08:36.883Z,3.30
2019-02-02T03:11:05.854Z,3.30
2019-02-02T03:13:34.743Z,3.30
2019-02-02T03:16:03.970Z,3.30
2019-02-02T03:18:32.746Z,3.30
2019-02-02T03:21:01.867Z,3.30
2019-02-02T03:23:30.639Z,3.40
2019-02-02T03:25:59.525Z,3.40
2019-02-02T03:28:28.528Z,3.40
2019-02-02T03:30:57.690Z,3.40
2019-02-02T03:33:26.553Z,3.40
2019-02-02T03:35:55.662Z,3.40
2019-02-02T03:38:24.423Z,3.40
2019-02-02T03:40:53.556Z,3.40
2019-02-02T03:43:22.800Z,3.40
2019-02-02T03:45:52.030Z,3.40
2019-02-02T03:48:20.894Z,3.50
2019-02-02T03:50:49.678Z,3.50
2019-02-02T03:53:18.548Z,3.50
2019-02-02T03:55:47.841Z,3.40
2019-02-02T03:58:16.946Z,3.70
2019-02-02T04:00:45.979Z,3.40
2019-02-02T04:03:14.897Z,3.40
2019-02-02T04:05:43.836Z,3.40
2019-02-02T04:08:12.956Z,3.40
2019-02-02T04:10:41.808Z,3.40
2019-02-02T04:13:10.700Z,3.40
2019-02-02T04:15:39.893Z,3.30
2019-02-02T04:18:08.791Z,3.30
2019-02-02T04:20:38.139Z,3.20
2019-02-02T04:23:07.293Z,3.20
2019-02-02T04:25:36.159Z,3.20
2019-02-02T04:28:05.024Z,3.20
2019-02-02T04:30:34.006Z,3.20
2019-02-02T04:33:03.179Z,3.20
2019-02-02T04:35:32.052Z,3.30
2019-02-02T04:38:00.976Z,3.30
2019-02-02T04:40:29.751Z,3.30
2019-02-02T04:43:01.639Z,3.30
2019-02-02T04:45:29.420Z,3.30
2019-02-02T04:47:58.276Z,3.40
2019-02-02T04:50:27.076Z,3.40
2019-02-02T04:52:56.120Z,3.40
2019-02-02T04:55:24.964Z,3.40
2019-02-02T04:57:53.788Z,3.40
2019-02-02T05:00:24.368Z,3.40
2019-02-02T05:02:53.582Z,3.40
2019-02-02T05:05:22.604Z,3.40
2019-02-02T05:07:51.773Z,3.40
2019-02-02T05:10:22.079Z,3.40
2019-02-02T05:12:51.152Z,3.40
2019-02-02T05:15:20.598Z,3.40
2019-02-02T05:17:50.045Z,3.50
2019-02-02T05:20:19.120Z,3.50
2019-02-02T05:22:48.137Z,3.40
2019-02-02T05:25:17.084Z,3.50
2019-02-02T05:27:45.939Z,3.50
2019-02-02T05:30:17.660Z,3.50
2019-02-02T05:32:46.587Z,3.50
2019-02-02T05:35:15.512Z,3.50
2019-02-02T05:37:44.446Z,3.50
2019-02-02T05:40:14.943Z,3.50
2019-02-02T05:42:44.287Z,3.50
2019-02-02T05:45:14.815Z,3.50
2019-02-02T05:47:43.685Z,3.50
2019-02-02T05:50:14.155Z,3.40
2019-02-02T05:52:43.328Z,3.30
2019-02-02T05:55:13.144Z,3.30
2019-02-02T05:57:42.083Z,3.30
2019-02-02T06:00:31.546Z,3.30
2019-02-02T06:03:00.396Z,3.20
2019-02-02T06:05:29.479Z,3.20
2019-02-02T06:07:58.352Z,3.20
2019-02-02T06:10:27.451Z,3.20
2019-02-02T06:12:56.364Z,3.10
2019-02-02T06:15:28.330Z,3.10
2019-02-02T06:17:55.999Z,3.10
2019-02-02T06:20:25.093Z,3.00
2019-02-02T06:22:54.270Z,3.80
2019-02-02T06:25:23.356Z,3.00
2019-02-02T06:27:52.268Z,3.10
2019-02-02T06:30:21.471Z,3.00
2019-02-02T06:32:50.579Z,3.10
2019-02-02T06:35:19.784Z,3.10
2019-02-02T06:37:48.727Z,3.10
2019-02-02T06:40:17.956Z,3.00
2019-02-02T06:42:47.144Z,3.00
2019-02-02T06:45:19.115Z,3.10
2019-02-02T06:47:48.331Z,3.10
2019-02-02T06:50:17.599Z,3.10
2019-02-02T06:52:46.864Z,3.20
2019-02-02T06:55:16.078Z,3.20
2019-02-02T06:57:45.160Z,3.20
2019-02-02T07:00:16.551Z,3.20
2019-02-02T07:02:45.538Z,3.20
2019-02-02T07:05:15.079Z,3.20
2019-02-02T07:07:44.050Z,3.30
2019-02-02T07:10:18.648Z,3.30
2019-02-02T07:12:50.348Z,3.40
2019-02-02T07:15:20.929Z,3.40
2019-02-02T07:17:50.201Z,3.40
2019-02-02T07:20:19.601Z,3.50
2019-02-02T07:22:48.539Z,3.50
2019-02-02T07:25:17.735Z,3.50
2019-02-02T07:27:46.724Z,3.60
2019-02-02T07:30:28.058Z,3.60
2019-02-02T07:32:48.419Z,3.60
2019-02-02T07:35:17.518Z,3.60
2019-02-02T07:37:46.496Z,3.70
2019-02-02T07:40:16.176Z,3.70
2019-02-02T07:42:45.830Z,3.70
2019-02-02T07:45:22.958Z,3.70
2019-02-02T07:47:51.936Z,3.70
2019-02-02T07:50:21.667Z,3.70
2019-02-02T07:52:50.607Z,3.70
2019-02-02T07:55:20.164Z,3.80
2019-02-02T07:57:49.346Z,3.80
2019-02-02T08:00:23.884Z,3.80
2019-02-02T08:02:53.086Z,3.80
2019-02-02T08:05:22.283Z,3.80
2019-02-02T08:07:52.130Z,3.90
2019-02-02T08:10:21.248Z,3.90
2019-02-02T08:12:50.340Z,3.80
2019-02-02T08:15:22.067Z,3.80
2019-02-02T08:17:51.449Z,3.80
2019-02-02T08:20:21.041Z,3.90
2019-02-02T08:22:50.184Z,3.90
2019-02-02T08:25:19.056Z,4.00
2019-02-02T08:27:47.984Z,3.90
2019-02-02T08:30:18.823Z,4.00
2019-02-02T08:32:48.256Z,4.50
2019-02-02T08:35:17.436Z,4.00
2019-02-02T08:37:46.304Z,4.00
2019-02-02T08:40:15.770Z,4.00
2019-02-02T08:42:44.662Z,4.00
2019-02-02T08:45:14.634Z,4.00
2019-02-02T08:47:43.503Z,4.00
2019-02-02T08:50:21.900Z,4.10
2019-02-02T08:52:50.879Z,4.10
2019-02-02T08:55:20.199Z,4.10
2019-02-02T08:57:49.123Z,4.10
2019-02-02T09:00:19.199Z,4.10
2019-02-02T09:02:48.268Z,4.10
2019-02-02T09:05:18.382Z,4.20
2019-02-02T09:07:47.401Z,4.20
2019-02-02T09:10:21.660Z,4.20
2019-02-02T09:12:50.669Z,4.20
2019-02-02T09:15:19.874Z,4.30
2019-02-02T09:17:49.405Z,4.30
2019-02-02T09:20:18.415Z,4.40
2019-02-02T09:22:47.433Z,4.50
2019-02-02T09:25:17.121Z,4.50
2019-02-02T09:27:46.287Z,4.60
2019-02-02T09:30:17.841Z,4.60
2019-02-02T09:32:46.648Z,4.60
2019-02-02T09:35:15.645Z,4.60
2019-02-02T09:37:45.052Z,4.60
2019-02-02T09:40:15.205Z,4.70
2019-02-02T09:42:44.561Z,4.80
2019-02-02T09:45:14.763Z,4.70
2019-02-02T09:47:43.640Z,4.80
2019-02-02T09:50:16.278Z,4.60
2019-02-02T09:52:45.369Z,4.60
2019-02-02T09:55:15.733Z,4.60
2019-02-02T09:57:44.991Z,4.60
2019-02-02T10:00:22.314Z,4.60
2019-02-02T10:02:51.250Z,4.60
2019-02-02T10:05:20.552Z,4.60
2019-02-02T10:07:49.632Z,4.60
2019-02-02T10:10:23.215Z,4.60
2019-02-02T10:12:52.197Z,4.70
2019-02-02T10:15:21.353Z,4.70
2019-02-02T10:17:50.374Z,4.70
2019-02-02T10:20:21.492Z,4.70
2019-02-02T10:22:50.644Z,4.80
2019-02-02T10:25:24.698Z,4.80
2019-02-02T10:27:53.877Z,4.80
2019-02-02T10:30:33.717Z,4.80
2019-02-02T10:33:02.515Z,4.90
2019-02-02T10:35:31.731Z,4.90
2019-02-02T10:38:00.922Z,5.00
2019-02-02T10:40:30.323Z,5.00
2019-02-02T10:42:59.414Z,5.00
2019-02-02T10:45:28.348Z,5.10
2019-02-02T10:47:58.036Z,5.10
2019-02-02T10:50:26.991Z,5.20
2019-02-02T10:52:55.915Z,5.20
2019-02-02T10:55:24.895Z,5.30
2019-02-02T10:57:53.954Z,5.30
2019-02-02T11:00:25.327Z,5.40
2019-02-02T11:02:54.562Z,5.50
2019-02-02T11:05:23.941Z,5.40
2019-02-02T11:07:54.543Z,5.40
2019-02-02T11:10:25.598Z,5.40
2019-02-02T11:12:54.823Z,5.30
2019-02-02T11:15:24.177Z,5.30
2019-02-02T11:17:53.540Z,5.30
2019-02-02T11:20:27.745Z,5.30
2019-02-02T11:22:57.117Z,5.30
2019-02-02T11:25:25.998Z,5.30
2019-02-02T11:27:54.977Z,5.30
2019-02-02T11:30:25.155Z,5.20
2019-02-02T11:32:54.055Z,5.30
2019-02-02T11:35:23.228Z,5.20
2019-02-02T11:37:52.092Z,5.00
2019-02-02T11:40:26.080Z,5.10
2019-02-02T11:42:55.072Z,5.00
2019-02-02T11:45:24.336Z,5.00
2019-02-02T11:47:53.185Z,4.90
2019-02-02T11:50:22.575Z,4.90
2019-02-02T11:52:51.609Z,4.90
2019-02-02T11:55:20.873Z,4.90
2019-02-02T11:57:50.246Z,4.90
2019-02-02T12:00:33.350Z,4.90
2019-02-02T12:03:04.366Z,4.90
2019-02-02T12:05:32.953Z,4.90
2019-02-02T12:08:01.913Z,4.90
2019-02-02T12:10:31.343Z,4.80
2019-02-02T12:13:00.299Z,4.80
2019-02-02T12:15:29.204Z,4.90
2019-02-02T12:17:58.152Z,5.00
2019-02-02T12:20:27.600Z,5.00
2019-02-02T12:22:56.804Z,4.90
2019-02-02T12:25:25.760Z,4.40
2019-02-02T12:27:54.874Z,4.90
2019-02-02T12:30:29.383Z,4.90
2019-02-02T12:32:58.324Z,4.90
2019-02-02T12:35:27.426Z,4.90
2019-02-02T12:37:56.397Z,4.90
2019-02-02T12:40:25.541Z,4.90
2019-02-02T12:42:54.505Z,4.90
2019-02-02T12:45:49.690Z,4.90
2019-02-02T12:48:18.573Z,4.90
2019-02-02T12:50:47.680Z,5.00
2019-02-02T12:53:16.829Z,5.00
2019-02-02T12:55:45.806Z,5.00
2019-02-02T12:58:14.933Z,5.00
2019-02-02T13:00:44.475Z,5.00
2019-02-02T13:03:13.369Z,5.00
2019-02-02T13:05:42.253Z,5.00
2019-02-02T13:08:11.476Z,5.00
2019-02-02T13:10:40.813Z,5.10
2019-02-02T13:13:09.984Z,5.00
2019-02-02T13:15:38.828Z,5.10
2019-02-02T13:18:07.983Z,5.00
2019-02-02T13:20:37.236Z,5.10
2019-02-02T13:23:06.171Z,5.10
2019-02-02T13:25:35.346Z,5.00
2019-02-02T13:28:04.302Z,5.00
2019-02-02T13:30:34.648Z,5.10
2019-02-02T13:33:03.579Z,5.30
2019-02-02T13:35:34.114Z,5.30
2019-02-02T13:38:03.093Z,5.40
2019-02-02T13:40:32.299Z,5.30
2019-02-02T13:43:01.400Z,5.30
2019-02-02T13:45:30.363Z,5.30
2019-02-02T13:47:59.298Z,5.40
2019-02-02T13:50:28.748Z,5.40
2019-02-02T13:52:57.813Z,5.40
2019-02-02T13:55:27.556Z,5.50
2019-02-02T13:57:56.614Z,5.50
2019-02-02T14:00:28.187Z,5.50
2019-02-02T14:03:02.679Z,5.50
2019-02-02T14:05:28.655Z,5.40
2019-02-02T14:08:00.012Z,5.40
2019-02-02T14:10:29.944Z,5.40
2019-02-02T14:12:59.012Z,5.40
2019-02-02T14:15:27.884Z,5.40
2019-02-02T14:17:56.691Z,5.40
2019-02-02T14:20:25.786Z,5.50
2019-02-02T14:22:54.773Z,5.60
2019-02-02T14:25:23.827Z,5.80
2019-02-02T14:27:53.052Z,5.80
2019-02-02T14:30:24.113Z,5.80
2019-02-02T14:32:54.789Z,5.90
2019-02-02T14:35:25.248Z,5.80
2019-02-02T14:37:54.314Z,5.90
2019-02-02T14:40:23.490Z,5.90
2019-02-02T14:42:52.459Z,5.90
2019-02-02T14:45:22.464Z,5.90
2019-02-02T14:47:51.272Z,5.90
2019-02-02T14:50:21.566Z,5.80
2019-02-02T14:52:51.183Z,5.80
2019-02-02T14:55:22.567Z,5.60
2019-02-02T14:57:52.069Z,5.50
2019-02-02T15:00:23.242Z,5.50
2019-02-02T15:02:52.428Z,5.40
2019-02-02T15:05:22.198Z,5.40
2019-02-02T15:07:51.192Z,5.30
2019-02-02T15:10:21.088Z,5.30
2019-02-02T15:12:50.118Z,5.30
2019-02-02T15:15:19.568Z,5.40
2019-02-02T15:17:48.705Z,5.40
2019-02-02T15:20:22.119Z,5.50
2019-02-02T15:22:50.533Z,5.50
2019-02-02T15:25:19.475Z,5.60
2019-02-02T15:27:48.674Z,5.60
2019-02-02T15:30:18.691Z,5.60
2019-02-02T15:32:47.878Z,5.60
2019-02-02T15:35:17.192Z,5.70
2019-02-02T15:37:54.991Z,5.70
2019-02-02T15:40:24.275Z,5.70
2019-02-02T15:42:53.516Z,5.70
2019-02-02T15:45:23.771Z,5.70
2019-02-02T15:47:52.987Z,5.70
2019-02-02T15:50:22.116Z,5.70
2019-02-02T15:52:51.347Z,5.70
2019-02-02T15:55:21.455Z,5.70
2019-02-02T15:57:50.406Z,5.70
2019-02-02T16:00:24.290Z,5.70
2019-02-02T16:02:53.297Z,5.70
2019-02-02T16:05:22.494Z,5.70
2019-02-02T16:07:51.393Z,5.70
2019-02-02T16:10:22.650Z,5.70
2019-02-02T16:12:52.458Z,5.60
2019-02-02T16:15:21.323Z,5.60
2019-02-02T16:17:50.391Z,5.60
2019-02-02T16:20:21.239Z,5.60
2019-02-02T16:22:50.424Z,5.60
2019-02-02T16:25:19.590Z,5.60
2019-02-02T16:27:48.777Z,5.60
2019-02-02T16:30:20.207Z,5.60
2019-02-02T16:32:49.141Z,5.60
2019-02-02T16:35:18.174Z,5.60
2019-02-02T16:37:47.356Z,5.50
2019-02-02T16:40:18.249Z,5.50
2019-02-02T16:42:48.455Z,5.40
2019-02-02T16:45:19.258Z,5.40
2019-02-02T16:47:48.726Z,5.40
2019-02-02T16:50:17.881Z,5.40
2019-02-02T16:52:47.090Z,5.40
2019-02-02T16:55:16.472Z,5.40
2019-02-02T16:57:45.343Z,5.30
2019-02-02T17:00:19.708Z,5.30
2019-02-02T17:02:49.082Z,5.30
2019-02-02T17:05:18.672Z,5.30
2019-02-02T17:07:47.637Z,5.30
2019-02-02T17:10:21.644Z,5.30
2019-02-02T17:12:50.604Z,5.30
2019-02-02T17:15:19.847Z,5.30
2019-02-02T17:17:49.091Z,5.20
2019-02-02T17:20:20.370Z,5.20
2019-02-02T17:22:49.566Z,5.20
2019-02-02T17:25:22.264Z,5.20
2019-02-02T17:27:49.739Z,5.20
2019-02-02T17:30:20.316Z,5.20
2019-02-02T17:32:49.935Z,5.20
2019-02-02T17:35:18.948Z,5.30
2019-02-02T17:37:48.161Z,5.20
2019-02-02T17:40:19.630Z,5.20
2019-02-02T17:42:51.908Z,5.20
2019-02-02T17:45:21.707Z,5.20
2019-02-02T17:47:51.588Z,5.10
2019-02-02T17:50:22.830Z,5.20
2019-02-02T17:52:52.001Z,5.20
2019-02-02T17:55:20.955Z,5.10
2019-02-02T17:57:50.208Z,5.20
2019-02-02T18:00:33.760Z,5.10
2019-02-02T18:03:02.532Z,5.10
2019-02-02T18:05:31.424Z,5.00
2019-02-02T18:08:00.592Z,5.10
2019-02-02T18:10:29.399Z,5.00
2019-02-02T18:12:58.251Z,5.00
2019-02-02T18:15:27.115Z,5.10
2019-02-02T18:17:56.104Z,5.10
2019-02-02T18:20:25.156Z,5.10
2019-02-02T18:22:54.541Z,5.10
2019-02-02T18:25:23.509Z,5.10
2019-02-02T18:27:52.904Z,5.20
2019-02-02T18:30:22.371Z,5.20
2019-02-02T18:32:51.404Z,5.10
2019-02-02T18:35:20.685Z,5.10
2019-02-02T18:37:49.827Z,5.10
2019-02-02T18:40:19.172Z,5.20
2019-02-02T18:42:48.393Z,5.20
2019-02-02T18:45:19.755Z,5.20
2019-02-02T18:47:48.742Z,5.10
2019-02-02T18:50:17.982Z,5.20
2019-02-02T18:52:47.334Z,5.20
2019-02-02T18:55:21.525Z,5.20
2019-02-02T18:57:50.792Z,5.20
2019-02-02T19:00:20.146Z,5.10
2019-02-02T19:02:49.208Z,5.10
2019-02-02T19:05:18.245Z,5.10
2019-02-02T19:07:47.460Z,5.00
2019-02-02T19:10:21.683Z,5.00
2019-02-02T19:12:50.741Z,5.00
2019-02-02T19:15:19.814Z,5.00
2019-02-02T19:17:49.701Z,5.00
2019-02-02T19:20:19.923Z,4.90
2019-02-02T19:22:48.911Z,4.90
2019-02-02T19:25:18.072Z,5.00
2019-02-02T19:27:46.997Z,5.00
2019-02-02T19:30:18.532Z,5.00
2019-02-02T19:32:47.629Z,5.00
2019-02-02T19:35:16.796Z,5.00
2019-02-02T19:37:46.319Z,5.00
2019-02-02T19:40:15.667Z,5.00
2019-02-02T19:42:45.048Z,4.90
2019-02-02T19:45:15.621Z,4.90
2019-02-02T19:47:44.664Z,4.90
2019-02-02T19:50:19.449Z,4.90
2019-02-02T19:52:48.677Z,4.80
2019-02-02T19:55:17.629Z,4.80
2019-02-02T19:57:46.915Z,4.80
2019-02-02T20:00:24.332Z,4.70
2019-02-02T20:02:53.769Z,4.70
2019-02-02T20:05:28.710Z,4.70
2019-02-02T20:07:53.740Z,4.70
2019-02-02T20:10:22.742Z,4.70
2019-02-02T20:12:52.023Z,4.70
2019-02-02T20:15:22.756Z,4.70
2019-02-02T20:17:52.023Z,4.70
2019-02-02T20:20:22.647Z,4.70
2019-02-02T20:22:52.043Z,4.70
2019-02-02T20:25:21.625Z,4.70
2019-02-02T20:27:50.766Z,4.70
2019-02-02T20:30:21.542Z,4.70
2019-02-02T20:32:50.640Z,4.70
2019-02-02T20:35:19.863Z,4.70
2019-02-02T20:37:48.844Z,4.70
2019-02-02T20:40:19.653Z,4.70
2019-02-02T20:42:48.844Z,4.70
2019-02-02T20:45:37.287Z,4.70
2019-02-02T20:48:06.246Z,4.70
2019-02-02T20:50:35.348Z,4.70
2019-02-02T20:53:04.816Z,4.70
2019-02-02T20:55:36.656Z,4.70
2019-02-02T20:58:06.671Z,4.70
2019-02-02T21:00:36.509Z,4.70
2019-02-02T21:03:05.877Z,4.70
2019-02-02T21:05:34.670Z,4.60
2019-02-02T21:08:04.370Z,4.60
2019-02-02T21:10:33.400Z,4.60
2019-02-02T21:13:02.624Z,4.50
2019-02-02T21:15:31.784Z,4.50
2019-02-02T21:18:00.667Z,4.50
2019-02-02T21:20:29.915Z,4.50
2019-02-02T21:22:58.812Z,4.50
2019-02-02T21:25:27.898Z,4.50
2019-02-02T21:27:57.380Z,4.50
2019-02-02T21:30:28.638Z,4.50
2019-02-02T21:32:57.893Z,4.50
2019-02-02T21:35:26.971Z,4.50
2019-02-02T21:37:56.268Z,4.50
2019-02-02T21:40:27.245Z,4.50
2019-02-02T21:42:56.200Z,4.50
2019-02-02T21:45:25.103Z,4.50
2019-02-02T21:47:54.620Z,4.50
2019-02-02T21:50:24.071Z,4.40
2019-02-02T21:52:53.772Z,4.40
2019-02-02T21:55:24.601Z,4.40
2019-02-02T21:57:53.547Z,4.40
2019-02-02T22:00:31.123Z,4.40
2019-02-02T22:03:00.005Z,4.40
2019-02-02T22:05:28.970Z,4.40
2019-02-02T22:07:58.141Z,4.40
2019-02-02T22:10:27.304Z,4.40
2019-02-02T22:12:56.548Z,4.40
2019-02-02T22:15:25.793Z,4.40
2019-02-02T22:17:54.861Z,4.50
2019-02-02T22:20:23.850Z,4.50
2019-02-02T22:22:53.100Z,4.40
2019-02-02T22:25:27.140Z,4.50
2019-02-02T22:27:56.015Z,4.50
2019-02-02T22:30:29.540Z,4.40
2019-02-02T22:32:58.442Z,4.40
2019-02-02T22:35:27.530Z,4.40
2019-02-02T22:37:56.672Z,4.40
2019-02-02T22:40:27.068Z,4.40
2019-02-02T22:42:56.380Z,4.40
2019-02-02T22:45:25.372Z,4.40
2019-02-02T22:47:54.572Z,4.40
2019-02-02T22:50:24.990Z,4.40
2019-02-02T22:52:54.175Z,4.40
2019-02-02T22:55:23.559Z,4.40
2019-02-02T22:57:52.764Z,4.40
2019-02-02T23:01:12.358Z,4.40
2019-02-02T23:04:03.765Z,4.40
2019-02-02T23:06:45.377Z,4.40
2019-02-02T23:09:47.064Z,4.40
2019-02-02T23:12:50.559Z,4.40
2019-02-02T23:15:49.793Z,4.40
2019-02-02T23:18:18.621Z,4.40
2019-02-02T23:20:47.487Z,4.40
2019-02-02T23:23:16.380Z,4.40
2019-02-02T23:25:45.250Z,4.40
2019-02-02T23:28:14.088Z,4.40
2019-02-02T23:30:43.324Z,4.30
2019-02-02T23:33:12.295Z,4.30
2019-02-02T23:35:41.177Z,4.30
2019-02-02T23:38:10.177Z,4.30
2019-02-02T23:40:39.052Z,4.30
2019-02-02T23:43:08.524Z,4.20
2019-02-02T23:45:37.886Z,4.20
2019-02-02T23:48:06.777Z,4.20
2019-02-02T23:50:35.639Z,4.20
2019-02-02T23:53:05.555Z,4.20
2019-02-02T23:55:34.314Z,4.20
2019-02-02T23:58:03.581Z,4.20
